Time;durP1;ratioP1;P1;durP2;ratioP2;P2;SDS_P1;SDS_P2;PMS_P1;PMS_P2;Temp;Humidity;BMP_temperature;BMP_pressure;BME280_temperature;BME280_humidity;BME280_pressure;Samples;Min_cycle;Max_cycle;Signal;HPM_P1;HPM_P2
2023/01/26 00:02:14;;;;;;;6.40;4.70;;;;;;;0.43;84.64;95523.28;5023282;28;20211;-65
2023/01/26 00:04:42;;;;;;;6.53;5.17;;;;;;;0.55;84.20;95528.44;5026434;28;20207;-65
2023/01/26 00:07:09;;;;;;;8.57;5.40;;;;;;;0.57;83.76;95531.78;5023594;28;20821;-66
2023/01/26 00:09:36;;;;;;;9.70;6.27;;;;;;;0.55;84.10;95528.44;5025356;28;20284;-66
2023/01/26 00:12:02;;;;;;;8.53;5.53;;;;;;;0.63;83.75;95526.88;5030341;28;21183;-66
2023/01/26 00:14:48;;;;;;;11.10;5.70;;;;;;;0.52;84.52;95518.38;5028606;28;21451;-66
2023/01/26 00:17:16;;;;;;;4.10;3.80;;;;;;;0.52;83.37;95533.41;5028125;28;20227;-65
2023/01/26 00:19:44;;;;;;;6.40;5.83;;;;;;;0.52;84.21;95543.41;5027987;28;20207;-66
2023/01/26 00:22:10;;;;;;;4.97;4.57;;;;;;;0.47;83.48;95545.03;5028772;28;20241;-65
2023/01/26 00:24:37;;;;;;;5.93;5.43;;;;;;;0.42;83.63;95541.63;5029430;28;20203;-65
2023/01/26 00:27:04;;;;;;;5.73;4.93;;;;;;;0.42;83.10;95538.28;5026668;28;20758;-66
2023/01/26 00:29:30;;;;;;;11.20;6.10;;;;;;;0.40;83.65;95523.25;5028341;28;20277;-66
2023/01/26 00:31:57;;;;;;;7.90;5.87;;;;;;;0.47;83.38;95520.03;5026121;28;20235;-64
2023/01/26 00:34:24;;;;;;;5.87;5.27;;;;;;;0.42;83.78;95513.28;5027658;28;20215;-65
2023/01/26 00:36:52;;;;;;;5.80;5.30;;;;;;;0.42;83.58;95519.13;5026269;28;20231;-65
2023/01/26 00:39:18;;;;;;;8.37;5.23;;;;;;;0.39;83.77;95506.56;5026867;28;20235;-64
2023/01/26 00:44:29;;;;;;;6.13;4.90;;;;;;;0.42;82.63;95503.28;5028194;28;20206;-67
2023/01/26 00:46:56;;;;;;;8.13;6.40;;;;;;;0.52;82.44;95500.03;5027822;28;20203;-67
2023/01/26 00:49:23;;;;;;;6.87;5.40;;;;;;;0.43;83.07;95493.28;5028567;28;20207;-65
2023/01/26 00:51:50;;;;;;;6.40;5.80;;;;;;;0.39;83.31;95494.06;5029694;28;20207;-66
2023/01/26 00:54:18;;;;;;;6.90;4.87;;;;;;;0.31;82.34;95498.13;5027655;28;20211;-64
2023/01/26 00:56:44;;;;;;;8.17;4.47;;;;;;;0.29;83.11;95494.78;5025874;28;20735;-67
2023/01/26 00:59:12;;;;;;;6.37;4.77;;;;;;;0.24;83.00;95498.88;5028113;28;20236;-64
2023/01/26 01:01:38;;;;;;;7.27;5.83;;;;;;;0.30;82.99;95483.94;5026353;28;20196;-65
2023/01/26 01:04:05;;;;;;;7.63;6.00;;;;;;;0.33;82.95;95491.50;5025950;28;20787;-64
2023/01/26 01:06:32;;;;;;;5.80;5.30;;;;;;;0.34;82.37;95471.50;5028467;28;20207;-65
2023/01/26 01:08:59;;;;;;;5.60;5.10;;;;;;;0.38;82.52;95484.06;5027044;28;20215;-66
2023/01/26 01:11:27;;;;;;;7.57;5.90;;;;;;;0.34;82.63;95485.66;5028500;28;20308;-66
2023/01/26 01:13:53;;;;;;;6.23;5.63;;;;;;;0.39;81.61;95473.22;5029497;28;20207;-67
2023/01/26 01:16:20;;;;;;;8.37;5.70;;;;;;;0.49;82.32;95473.38;5029766;28;20238;-67
2023/01/26 01:18:47;;;;;;;9.07;6.00;;;;;;;0.49;81.51;95485.03;5024703;28;20959;-65
2023/01/26 01:21:16;;;;;;;6.33;5.40;;;;;;;0.42;81.12;95470.78;5026564;28;20204;-66
2023/01/26 01:23:43;;;;;;;6.13;5.07;;;;;;;0.53;81.07;95477.56;5026350;28;20199;-65
2023/01/26 01:26:10;;;;;;;5.63;4.70;;;;;;;0.57;80.35;95474.28;5027219;28;21262;-64
2023/01/26 01:28:39;;;;;;;6.63;5.63;;;;;;;0.51;80.28;95468.34;5029376;28;20203;-64
2023/01/26 01:31:06;;;;;;;8.00;5.73;;;;;;;0.46;81.16;95472.50;5029167;28;20243;-64
2023/01/26 01:33:33;;;;;;;6.03;5.40;;;;;;;0.53;79.98;95466.72;5029014;28;20203;-65
2023/01/26 01:36:01;;;;;;;5.10;4.57;;;;;;;0.43;80.07;95465.78;5026514;28;20304;-65
2023/01/26 01:38:28;;;;;;;7.63;5.27;;;;;;;0.56;79.81;95460.09;5028584;28;20672;-67
2023/01/26 01:40:56;;;;;;;5.43;4.93;;;;;;;0.46;80.87;95468.34;5028712;28;20203;-65
2023/01/26 01:43:24;;;;;;;4.27;3.87;;;;;;;0.43;80.49;95467.44;5028946;28;20215;-63
2023/01/26 01:45:53;;;;;;;5.47;4.97;;;;;;;0.36;80.47;95465.69;5027880;28;21636;-64
2023/01/26 01:48:25;;;;;;;7.40;4.63;;;;;;;0.42;80.78;95465.78;5027775;28;20199;-64
2023/01/26 01:50:55;;;;;;;6.30;5.67;;;;;;;0.33;80.54;95464.84;5027643;28;20211;-65
2023/01/26 01:53:27;;;;;;;5.97;4.17;;;;;;;0.36;79.96;95460.69;5026169;28;20207;-62
2023/01/26 01:55:57;;;;;;;5.97;4.90;;;;;;;0.45;80.14;95461.66;5026214;28;20206;-63
2023/01/26 01:58:24;;;;;;;4.07;3.40;;;;;;;0.43;79.37;95458.28;5027472;28;20761;-64
2023/01/26 02:00:53;;;;;;;5.13;4.57;;;;;;;0.41;79.55;95459.09;5027549;28;20257;-64
2023/01/26 02:03:20;;;;;;;5.23;4.77;;;;;;;0.56;79.14;95457.59;5027667;28;20218;-62
2023/01/26 02:05:56;;;;;;;4.67;4.27;;;;;;;0.51;79.68;95464.19;5028448;28;20203;-63
2023/01/26 02:08:27;;;;;;;4.07;3.77;;;;;;;0.44;79.47;95459.97;5026704;28;20293;-63
2023/01/26 02:10:58;;;;;;;3.53;3.23;;;;;;;0.51;78.53;95461.69;5027673;28;20231;-64
2023/01/26 02:13:26;;;;;;;3.20;3.00;;;;;;;0.50;78.88;95440.00;5028741;28;20229;-62
2023/01/26 02:15:54;;;;;;;3.57;3.27;;;;;;;0.49;77.90;95440.03;5027767;28;20214;-63
2023/01/26 02:18:21;;;;;;;4.13;3.87;;;;;;;0.49;78.54;95440.88;5028153;28;20207;-63
2023/01/26 02:20:51;;;;;;;4.33;3.30;;;;;;;0.39;78.93;95426.56;5026210;28;20611;-64
2023/01/26 02:23:28;;;;;;;4.33;4.03;;;;;;;0.47;78.49;95429.16;5028351;28;20207;-64
2023/01/26 02:26:07;;;;;;;5.67;3.97;;;;;;;0.39;78.58;95413.22;5027082;28;20215;-65
2023/01/26 02:28:34;;;;;;;4.23;3.53;;;;;;;0.38;78.68;95412.41;5028230;28;20667;-64
2023/01/26 02:31:00;;;;;;;4.97;4.47;;;;;;;0.34;79.34;95408.19;5028160;28;20618;-64
2023/01/26 02:33:29;;;;;;;4.03;3.73;;;;;;;0.32;79.51;95404.81;5025944;28;20586;-65
2023/01/26 02:35:55;;;;;;;4.77;4.20;;;;;;;0.33;79.57;95409.84;5026383;28;20652;-65
2023/01/26 02:38:26;;;;;;;4.47;3.90;;;;;;;0.38;79.02;95409.91;5028298;28;20218;-64
2023/01/26 02:40:55;;;;;;;3.90;3.60;;;;;;;0.33;79.20;95409.00;5027172;28;20694;-64
2023/01/26 02:43:25;;;;;;;4.13;3.83;;;;;;;0.32;79.15;95399.81;5028899;28;20215;-65
2023/01/26 02:45:52;;;;;;;4.77;4.33;;;;;;;0.37;79.00;95397.38;5026777;28;20207;-67
2023/01/26 02:49:45;;;;;;;4.73;3.90;;;;;;;0.42;78.59;95396.59;5025690;28;20669;-66
2023/01/26 02:51:06;;;;;;;5.03;4.33;;;;;;;0.43;78.84;95385.78;5025370;28;21016;-66
2023/01/26 02:53:33;;;;;;;3.93;3.63;;;;;;;0.43;78.85;95388.28;5027208;28;21615;-66
2023/01/26 02:55:58;;;;;;;4.50;4.07;;;;;;;0.48;79.16;95381.69;5026859;28;20221;-65
2023/01/26 02:58:27;;;;;;;6.03;4.67;;;;;;;0.45;79.46;95386.66;5027390;28;20210;-65
2023/01/26 03:00:53;;;;;;;6.37;4.67;;;;;;;0.26;79.53;95382.25;5028661;28;20206;-68
2023/01/26 03:03:23;;;;;;;4.90;3.47;;;;;;;0.32;79.94;95369.81;5027072;28;20207;-65
2023/01/26 03:05:50;;;;;;;6.57;5.40;;;;;;;0.25;80.41;95370.56;5026906;28;20684;-65
2023/01/26 03:08:17;;;;;;;11.37;4.13;;;;;;;0.27;79.80;95368.94;5026708;28;20256;-65
2023/01/26 03:10:46;;;;;;;4.67;4.23;;;;;;;0.36;80.05;95370.69;5026402;28;20211;-65
2023/01/26 03:13:13;;;;;;;5.17;4.23;;;;;;;0.25;79.74;95373.06;5027861;28;20286;-62
2023/01/26 03:15:51;;;;;;;5.17;4.10;;;;;;;0.23;80.53;95364.75;5027082;28;20207;-63
2023/01/26 03:29:19;;;;;;;7.93;3.83;;;;;;;0.24;80.76;95346.44;5025509;28;20212;-66
2023/01/26 03:31:47;;;;;;;5.80;4.53;;;;;;;0.22;80.43;95340.56;5025347;28;20241;-67
2023/01/26 03:34:14;;;;;;;4.50;4.10;;;;;;;0.18;79.93;95336.38;5026658;28;20214;-64
2023/01/26 03:36:40;;;;;;;10.37;4.60;;;;;;;0.21;80.27;95342.22;5025727;28;20735;-63
2023/01/26 03:39:07;;;;;;;4.73;4.10;;;;;;;0.28;79.80;95333.13;5026034;28;20230;-62
2023/01/26 03:58:00;;;;;;;3.67;3.37;;;;;;;0.29;80.36;95330.63;5029160;28;20229;-65
2023/01/26 04:00:27;;;;;;;3.60;3.40;;;;;;;0.15;80.46;95336.31;5029789;28;20631;-64
2023/01/26 04:08:23;;;;;;;3.40;2.87;;;;;;;0.14;80.54;95317.16;5029018;28;20661;-67
2023/01/26 04:10:51;;;;;;;4.67;4.03;;;;;;;0.07;81.53;95296.25;5031688;28;20328;-63
2023/01/26 04:21:34;;;;;;;4.57;4.17;;;;;;;0.13;82.08;95288.00;5029411;28;20705;-64
2023/01/26 04:24:12;;;;;;;3.97;3.50;;;;;;;0.11;81.67;95277.97;5030432;28;20633;-65
2023/01/26 04:26:40;;;;;;;3.43;3.23;;;;;;;0.18;81.00;95274.72;5030811;28;20297;-65
2023/01/26 04:29:08;;;;;;;4.87;4.43;;;;;;;0.18;81.41;95268.88;5030064;28;20261;-64
2023/01/26 04:31:35;;;;;;;4.97;4.50;;;;;;;0.26;81.07;95284.78;5030664;28;20234;-64
2023/01/26 04:34:06;;;;;;;7.70;5.23;;;;;;;0.26;80.99;95269.78;5030715;28;20211;-63
2023/01/26 04:36:34;;;;;;;4.17;3.77;;;;;;;0.31;80.35;95270.66;5029601;28;20277;-63
2023/01/26 04:39:01;;;;;;;4.77;4.37;;;;;;;0.24;80.48;95277.28;5029146;28;20310;-65
2023/01/26 04:41:29;;;;;;;4.80;4.40;;;;;;;0.26;80.59;95270.59;5027178;28;20712;-63
2023/01/26 04:43:56;;;;;;;3.97;3.57;;;;;;;0.33;80.16;95281.50;5030592;28;20203;-67
2023/01/26 04:46:23;;;;;;;3.87;3.50;;;;;;;0.30;79.42;95276.47;5030593;28;20211;-66
2023/01/26 04:48:49;;;;;;;3.87;3.57;;;;;;;0.38;79.79;95289.06;5031183;28;20268;-65
2023/01/26 04:51:20;;;;;;;3.03;2.83;;;;;;;0.35;79.06;95282.38;5030197;28;20215;-65
2023/01/26 04:53:47;;;;;;;4.10;3.70;;;;;;;0.30;79.76;95286.47;5030472;28;20203;-67
2023/01/26 04:56:20;;;;;;;3.60;3.30;;;;;;;0.32;78.96;95289.84;5029436;28;20900;-65
2023/01/26 04:58:47;;;;;;;4.00;3.70;;;;;;;0.33;79.15;95281.50;5028850;28;20230;-66
2023/01/26 05:01:13;;;;;;;4.70;4.30;;;;;;;0.30;79.37;95277.31;5029410;28;20776;-67
2023/01/26 05:03:40;;;;;;;3.53;3.23;;;;;;;0.40;78.39;95278.25;5029261;28;20215;-66
2023/01/26 05:06:07;;;;;;;3.83;3.40;;;;;;;0.38;79.13;95274.06;5024497;28;20203;-64
2023/01/26 05:08:37;;;;;;;3.07;2.77;;;;;;;0.35;78.54;95279.88;5027343;28;20210;-65
2023/01/26 05:11:04;;;;;;;4.10;3.77;;;;;;;0.38;78.64;95279.91;5027916;28;20211;-65
2023/01/26 05:13:30;;;;;;;3.83;3.53;;;;;;;0.30;78.70;95281.47;5028143;28;20545;-64
2023/01/26 05:15:57;;;;;;;3.80;3.43;;;;;;;0.27;79.01;95271.44;5028964;28;20260;-67
2023/01/26 05:18:24;;;;;;;5.00;4.00;;;;;;;0.33;79.52;95269.00;5028836;28;20227;-63
2023/01/26 05:20:50;;;;;;;3.50;3.23;;;;;;;0.30;78.96;95276.47;5029050;28;20207;-64
2023/01/26 05:23:17;;;;;;;4.60;4.30;;;;;;;0.24;79.97;95281.44;5029638;28;20484;-64
2023/01/26 05:25:45;;;;;;;4.10;3.80;;;;;;;0.36;78.94;95268.22;5026082;28;20265;-65
2023/01/26 05:28:12;;;;;;;3.53;3.30;;;;;;;0.35;78.65;95269.88;5027025;28;20199;-63
2023/01/26 05:30:39;;;;;;;4.33;3.90;;;;;;;0.38;79.08;95264.91;5027691;28;20631;-66
2023/01/26 05:33:07;;;;;;;3.63;3.33;;;;;;;0.41;78.49;95269.94;5025524;28;20207;-66
2023/01/26 05:35:34;;;;;;;3.70;3.40;;;;;;;0.47;78.69;95276.66;5027842;28;20207;-65
2023/01/26 05:38:01;;;;;;;12.90;4.67;;;;;;;0.42;78.69;95266.59;5028264;28;20227;-64
2023/01/26 05:40:28;;;;;;;4.43;4.03;;;;;;;0.37;78.79;95273.22;5029459;28;20638;-64
2023/01/26 05:42:56;;;;;;;3.93;3.67;;;;;;;0.37;78.82;95263.22;5028790;28;20724;-64
2023/01/26 05:45:22;;;;;;;4.20;3.80;;;;;;;0.36;78.84;95266.53;5029569;28;20646;-65
2023/01/26 05:47:49;;;;;;;8.17;4.30;;;;;;;0.50;78.21;95264.16;5028848;28;20527;-65
2023/01/26 05:50:16;;;;;;;4.37;4.00;;;;;;;0.40;78.74;95258.25;5029661;28;20223;-65
2023/01/26 05:52:45;;;;;;;6.67;4.17;;;;;;;0.46;79.09;95259.97;5028658;28;20195;-65
2023/01/26 05:55:12;;;;;;;3.87;3.53;;;;;;;0.49;78.88;95260.84;5030198;28;20207;-65
2023/01/26 05:57:39;;;;;;;4.40;4.00;;;;;;;0.53;78.93;95270.00;5028792;28;20655;-62
2023/01/26 06:00:09;;;;;;;5.63;5.13;;;;;;;0.59;78.52;95269.22;5028518;28;20198;-65
2023/01/26 06:02:35;;;;;;;6.93;4.83;;;;;;;0.53;78.88;95275.00;5024408;28;20308;-65
2023/01/26 06:05:02;;;;;;;3.97;3.50;;;;;;;0.49;78.80;95275.84;5027043;28;20211;-65
2023/01/26 06:07:29;;;;;;;5.53;5.03;;;;;;;0.60;78.88;95261.75;5025216;28;20210;-65
2023/01/26 06:09:55;;;;;;;4.67;4.27;;;;;;;0.73;77.31;95267.69;5027456;28;20218;-64
2023/01/26 06:12:23;;;;;;;5.20;4.53;;;;;;;0.64;77.70;95263.44;5027684;28;20699;-66
2023/01/26 06:14:50;;;;;;;6.83;5.13;;;;;;;0.63;77.45;95261.78;5026722;28;20195;-66
2023/01/26 06:17:18;;;;;;;6.30;5.60;;;;;;;0.70;77.52;95251.81;5028013;28;20296;-65
2023/01/26 06:19:45;;;;;;;9.23;6.63;;;;;;;0.66;77.79;95251.78;5028369;28;20261;-64
2023/01/26 06:22:13;;;;;;;6.43;5.67;;;;;;;0.66;77.40;95260.97;5028932;28;20786;-65
2023/01/26 06:24:40;;;;;;;5.93;5.33;;;;;;;0.65;78.21;95257.63;5025721;28;20668;-67
2023/01/26 06:27:07;;;;;;;12.83;5.93;;;;;;;0.74;77.85;95241.84;5028640;28;20268;-67
2023/01/26 06:29:34;;;;;;;9.83;5.30;;;;;;;0.70;78.09;95251.81;5027266;28;20288;-66
2023/01/26 06:32:00;;;;;;;5.33;4.90;;;;;;;0.71;77.84;95249.34;5027254;28;20300;-65
2023/01/26 06:34:28;;;;;;;12.13;5.90;;;;;;;0.73;77.73;95239.34;5027461;28;20203;-65
2023/01/26 06:36:55;;;;;;;7.50;5.93;;;;;;;0.68;77.45;95245.13;5027118;28;20207;-64
2023/01/26 06:39:22;;;;;;;10.67;6.97;;;;;;;0.65;77.71;95240.13;5027895;28;20284;-66
2023/01/26 06:41:48;;;;;;;8.40;6.13;;;;;;;0.75;78.07;95235.16;5026724;28;20265;-65
2023/01/26 06:44:15;;;;;;;9.40;6.13;;;;;;;0.82;77.97;95236.88;5025651;28;20207;-65
2023/01/26 06:46:42;;;;;;;9.43;7.23;;;;;;;0.77;77.84;95248.50;5027561;28;20761;-65
2023/01/26 06:49:09;;;;;;;6.77;6.10;;;;;;;0.82;77.62;95241.88;5027847;28;20203;-66
2023/01/26 06:51:46;;;;;;;6.60;5.87;;;;;;;0.82;77.45;95236.88;5027206;28;20207;-65
2023/01/26 06:54:13;;;;;;;7.37;6.30;;;;;;;0.85;77.20;95241.91;5027705;28;20420;-65
2023/01/26 06:56:41;;;;;;;8.30;6.67;;;;;;;0.85;77.76;95239.41;5026660;28;20218;-65
2023/01/26 06:59:09;;;;;;;7.43;6.77;;;;;;;0.83;77.78;95229.38;5027777;28;20254;-65
2023/01/26 07:01:39;;;;;;;9.47;6.43;;;;;;;0.87;78.10;95221.06;5027517;28;20352;-66
2023/01/26 07:04:06;;;;;;;10.53;6.73;;;;;;;0.90;78.56;95220.25;5026951;28;20575;-67
2023/01/26 07:06:32;;;;;;;10.97;7.50;;;;;;;0.87;77.83;95227.75;5026563;28;20207;-65
2023/01/26 07:09:00;;;;;;;14.30;7.33;;;;;;;0.94;77.42;95222.78;5027214;28;20684;-66
2023/01/26 07:11:29;;;;;;;8.63;6.70;;;;;;;1.01;78.03;95228.66;5027801;28;20203;-65
2023/01/26 07:13:56;;;;;;;10.43;6.17;;;;;;;0.95;77.82;95214.47;5027550;28;20218;-67
2023/01/26 07:16:22;;;;;;;6.83;6.23;;;;;;;0.90;77.93;95215.25;5027567;28;20269;-67
2023/01/26 07:18:49;;;;;;;10.03;6.23;;;;;;;0.97;77.73;95219.47;5028290;28;20734;-65
2023/01/26 07:21:18;;;;;;;6.03;5.13;;;;;;;0.99;77.02;95230.34;5031084;28;22283;-63
2023/01/26 07:23:45;;;;;;;10.20;6.93;;;;;;;1.00;76.82;95224.47;5031572;28;20888;-65
2023/01/26 07:26:13;;;;;;;6.73;5.63;;;;;;;1.06;76.56;95196.97;5030426;28;20283;-65
2023/01/26 07:28:39;;;;;;;7.27;6.53;;;;;;;1.00;77.39;95230.31;5031953;28;20290;-66
2023/01/26 07:31:08;;;;;;;7.10;6.40;;;;;;;1.14;76.40;95210.38;5031104;28;20234;-65
2023/01/26 07:33:35;;;;;;;11.33;6.90;;;;;;;1.01;76.78;95183.59;5030440;28;20268;-66
2023/01/26 07:36:03;;;;;;;10.90;7.57;;;;;;;1.16;77.24;95212.91;5028465;28;20222;-66
2023/01/26 07:38:30;;;;;;;5.47;4.70;;;;;;;1.18;76.46;95226.25;5031754;28;20226;-65
2023/01/26 07:40:57;;;;;;;7.03;5.00;;;;;;;1.12;77.20;95221.22;5031554;28;20218;-66
2023/01/26 07:43:25;;;;;;;7.70;6.47;;;;;;;1.26;76.69;95200.41;5032507;28;20359;-66
2023/01/26 07:45:54;;;;;;;6.50;5.87;;;;;;;1.28;77.39;95202.91;5030528;28;20230;-66
2023/01/26 07:48:22;;;;;;;7.03;5.90;;;;;;;1.18;78.29;95207.06;5030681;28;20248;-66
2023/01/26 07:50:49;;;;;;;10.57;6.67;;;;;;;1.17;77.75;95207.06;5030321;28;20626;-64
2023/01/26 07:53:21;;;;;;;8.93;6.30;;;;;;;1.14;78.20;95205.38;5030996;28;20298;-66
2023/01/26 07:55:48;;;;;;;7.37;6.67;;;;;;;1.19;78.63;95208.75;5029719;28;20265;-65
2023/01/26 07:58:16;;;;;;;11.50;6.57;;;;;;;1.34;78.04;95206.28;5030827;28;20326;-65
2023/01/26 08:00:45;;;;;;;7.70;6.90;;;;;;;1.56;77.23;95206.38;5029245;28;20776;-66
2023/01/26 08:03:12;;;;;;;8.33;7.40;;;;;;;1.52;77.78;95202.19;5029114;28;20214;-66
2023/01/26 08:05:39;;;;;;;11.27;6.97;;;;;;;1.62;76.13;95197.22;5029359;28;20701;-64
2023/01/26 08:08:08;;;;;;;5.77;5.20;;;;;;;1.67;74.91;95187.22;5028809;28;20203;-66
2023/01/26 08:10:35;;;;;;;9.43;6.53;;;;;;;1.78;74.93;95188.06;5030260;28;20207;-65
2023/01/26 08:13:02;;;;;;;8.27;5.83;;;;;;;1.79;75.17;95176.38;5030656;28;21080;-65
2023/01/26 08:15:29;;;;;;;8.63;7.00;;;;;;;1.85;74.79;95182.22;5030409;28;20203;-67
2023/01/26 08:17:57;;;;;;;6.43;5.43;;;;;;;1.72;74.74;95173.03;5029777;28;20298;-67
2023/01/26 08:20:24;;;;;;;7.80;7.10;;;;;;;1.82;74.82;95174.72;5030834;28;20207;-65
2023/01/26 08:22:50;;;;;;;9.10;5.80;;;;;;;1.75;74.05;95175.50;5030035;28;20684;-65
2023/01/26 08:25:17;;;;;;;17.33;5.00;;;;;;;1.66;73.64;95178.03;5029932;28;20677;-65
2023/01/26 08:27:44;;;;;;;6.17;5.27;;;;;;;1.76;74.29;95171.34;5029234;28;20276;-66
2023/01/26 08:30:12;;;;;;;10.50;6.63;;;;;;;1.70;74.64;95164.69;5029685;28;20312;-65
2023/01/26 08:32:39;;;;;;;5.03;4.57;;;;;;;1.76;73.18;95171.34;5028913;28;20724;-65
2023/01/26 08:35:08;;;;;;;7.70;5.87;;;;;;;1.82;72.93;95167.19;5029991;28;20207;-66
2023/01/26 08:37:34;;;;;;;3.93;3.63;;;;;;;1.80;72.92;95165.50;5029742;28;20206;-70
2023/01/26 08:40:01;;;;;;;4.37;3.97;;;;;;;1.81;72.93;95165.50;5030581;28;20226;-69
2023/01/26 08:42:28;;;;;;;5.87;4.13;;;;;;;1.88;72.37;95164.69;5029557;28;20672;-66
2023/01/26 08:44:54;;;;;;;4.93;4.43;;;;;;;1.86;73.25;95158.00;5031165;28;20206;-67
2023/01/26 08:47:21;;;;;;;4.67;4.27;;;;;;;1.78;73.33;95160.50;5028277;28;20767;-68
2023/01/26 08:49:48;;;;;;;4.80;4.40;;;;;;;1.79;72.17;95157.16;5029387;28;20203;-64
2023/01/26 08:52:16;;;;;;;4.43;4.07;;;;;;;1.89;72.03;95168.88;5028626;28;21571;-65
2023/01/26 08:54:43;;;;;;;4.13;3.70;;;;;;;1.89;71.72;95178.06;5029806;28;20194;-64
2023/01/26 08:57:11;;;;;;;4.27;3.90;;;;;;;1.87;72.29;95175.56;5029151;28;20738;-66
2023/01/26 08:59:37;;;;;;;3.40;3.10;;;;;;;1.88;72.69;95182.25;5028499;28;20231;-65
2023/01/26 09:02:04;;;;;;;4.67;4.27;;;;;;;1.94;71.38;95167.22;5029251;28;20207;-66
2023/01/26 09:04:31;;;;;;;5.00;3.40;;;;;;;2.05;71.26;95164.69;5029826;28;20681;-65
2023/01/26 09:06:57;;;;;;;4.13;3.83;;;;;;;1.95;70.91;95161.38;5029810;28;20211;-65
2023/01/26 09:09:25;;;;;;;3.90;3.60;;;;;;;1.96;70.98;95162.22;5028756;28;20261;-66
2023/01/26 09:11:55;;;;;;;3.77;3.47;;;;;;;2.12;70.64;95168.06;5027320;28;20210;-66
2023/01/26 09:14:22;;;;;;;4.03;3.73;;;;;;;2.09;70.45;95160.53;5029150;28;20211;-67
2023/01/26 09:16:49;;;;;;;5.17;3.60;;;;;;;2.17;70.24;95166.41;5028632;28;20209;-66
2023/01/26 09:19:16;;;;;;;6.43;3.67;;;;;;;2.16;70.24;95167.22;5026600;28;20237;-65
2023/01/26 09:21:42;;;;;;;3.93;3.63;;;;;;;2.16;70.74;95155.53;5028260;28;20646;-64
2023/01/26 09:24:09;;;;;;;3.60;3.30;;;;;;;2.16;70.51;95172.25;5029492;28;20211;-66
2023/01/26 09:26:37;;;;;;;3.37;3.17;;;;;;;2.12;70.52;95146.34;5029942;28;20209;-66
2023/01/26 09:29:04;;;;;;;3.73;3.43;;;;;;;2.07;70.23;95142.16;5029481;28;20707;-69
2023/01/26 09:31:31;;;;;;;3.17;2.63;;;;;;;2.14;70.12;95139.66;5028893;28;20238;-65
2023/01/26 09:33:57;;;;;;;2.40;2.27;;;;;;;2.04;70.13;95143.81;5027919;28;20237;-65
2023/01/26 09:36:24;;;;;;;4.10;3.53;;;;;;;2.16;70.47;95117.94;5027523;28;20270;-67
2023/01/26 09:38:52;;;;;;;3.13;2.93;;;;;;;2.20;70.19;95121.28;5025780;28;20238;-65
2023/01/26 09:41:38;;;;;;;3.13;2.83;;;;;;;2.08;70.76;95132.13;5027069;28;20203;-64
2023/01/26 09:44:09;;;;;;;2.93;2.73;;;;;;;2.04;70.66;95126.28;5028383;28;20400;-68
2023/01/26 09:46:46;;;;;;;3.67;3.33;;;;;;;2.07;71.13;95127.09;5027105;28;20218;-67
2023/01/26 09:49:17;;;;;;;3.87;2.97;;;;;;;2.13;71.10;95124.59;5028173;28;20601;-64
2023/01/26 09:51:49;;;;;;;2.60;2.40;;;;;;;2.04;70.73;95138.81;5029101;28;20707;-64
2023/01/26 09:54:26;;;;;;;2.53;2.33;;;;;;;1.95;71.57;95133.81;5029167;28;20207;-65
2023/01/26 09:56:54;;;;;;;2.50;2.30;;;;;;;1.89;72.30;95108.72;5024851;28;20211;-65
2023/01/26 09:59:33;;;;;;;2.40;2.30;;;;;;;1.97;71.36;95113.75;5027094;28;20222;-65
2023/01/26 10:02:05;;;;;;;2.40;2.20;;;;;;;1.95;71.02;95108.75;5028034;28;20698;-66
2023/01/26 10:04:35;;;;;;;3.00;2.80;;;;;;;2.01;71.60;95098.69;5028944;28;20688;-65
2023/01/26 10:07:05;;;;;;;3.40;3.20;;;;;;;2.13;71.51;95100.38;5026814;28;20629;-66
2023/01/26 10:09:37;;;;;;;2.40;2.30;;;;;;;2.11;71.22;95103.72;5023968;28;21163;-65
2023/01/26 10:12:08;;;;;;;3.60;2.60;;;;;;;2.07;70.91;95107.06;5026141;28;20214;-66
2023/01/26 10:14:40;;;;;;;2.83;2.63;;;;;;;2.10;71.29;95102.03;5026473;28;20353;-64
2023/01/26 10:17:15;;;;;;;3.57;3.27;;;;;;;2.16;71.08;95100.38;5027222;28;20731;-66
2023/01/26 10:19:45;;;;;;;3.30;3.00;;;;;;;2.17;71.24;95113.75;5028186;28;20276;-66
2023/01/26 10:22:19;;;;;;;3.27;2.50;;;;;;;2.21;70.42;95085.34;5027440;28;20211;-65
2023/01/26 10:24:50;;;;;;;1.73;1.63;;;;;;;2.16;70.48;95076.97;5026384;28;20218;-65
2023/01/26 10:27:17;;;;;;;3.03;2.83;;;;;;;2.16;71.33;95066.94;5026640;28;20206;-66
2023/01/26 10:29:45;;;;;;;2.97;2.77;;;;;;;2.31;70.55;95046.84;5026831;28;20211;-64
2023/01/26 10:32:17;;;;;;;3.07;2.87;;;;;;;2.34;71.17;95044.34;5027140;28;20243;-67
2023/01/26 10:34:46;;;;;;;2.50;2.30;;;;;;;2.32;70.37;95033.47;5027808;28;20199;-67
2023/01/26 10:37:21;;;;;;;4.70;2.57;;;;;;;2.45;70.37;95034.31;5025380;28;20783;-65
2023/01/26 10:39:59;;;;;;;3.17;2.87;;;;;;;2.49;69.70;95016.69;5026165;28;20617;-68
2023/01/26 10:42:29;;;;;;;3.43;3.23;;;;;;;2.61;70.35;95009.16;5028367;28;20684;-66
2023/01/26 10:45:00;;;;;;;2.27;2.13;;;;;;;2.58;69.76;95031.72;5027303;28;20284;-67
2023/01/26 10:47:28;;;;;;;2.93;2.73;;;;;;;2.60;69.29;94989.91;5025645;28;20213;-68
2023/01/26 10:50:15;;;;;;;2.60;2.50;;;;;;;2.59;69.61;95003.31;5028679;28;20604;-67
2023/01/26 10:52:57;;;;;;;2.27;1.93;;;;;;;2.54;70.11;94994.13;5027454;28;20207;-66
2023/01/26 10:55:24;;;;;;;2.50;2.30;;;;;;;2.70;70.07;94995.75;5028335;28;20206;-67
2023/01/26 10:57:51;;;;;;;3.83;2.63;;;;;;;2.82;69.21;94985.63;5027276;28;21040;-68
2023/01/26 11:00:27;;;;;;;2.53;2.33;;;;;;;2.83;69.65;94987.31;5027693;28;20235;-67
2023/01/26 11:02:58;;;;;;;4.43;2.77;;;;;;;2.91;68.55;94968.03;5027214;28;20589;-66
2023/01/26 11:05:26;;;;;;;2.10;2.00;;;;;;;2.91;68.71;94962.16;5028058;28;20207;-65
2023/01/26 11:07:59;;;;;;;2.70;2.50;;;;;;;2.85;68.40;94954.66;5025977;28;20680;-65
2023/01/26 11:10:28;;;;;;;3.07;2.50;;;;;;;2.93;68.61;94943.75;5026060;28;20207;-66
2023/01/26 11:13:16;;;;;;;3.33;3.03;;;;;;;2.93;68.98;94932.88;5027036;28;20207;-66
2023/01/26 11:15:47;;;;;;;2.97;2.77;;;;;;;2.95;68.05;94951.28;5023270;28;20203;-67
2023/01/26 11:18:23;;;;;;;3.13;2.83;;;;;;;2.92;68.97;94937.06;5026875;28;20239;-66
2023/01/26 11:20:57;;;;;;;3.73;3.00;;;;;;;2.99;68.51;94932.81;5024699;28;20230;-66
2023/01/26 11:23:45;;;;;;;4.60;3.53;;;;;;;2.98;68.46;94926.13;5027424;28;20211;-66
2023/01/26 11:26:35;;;;;;;4.80;3.70;;;;;;;3.10;68.66;94926.06;5026094;28;20663;-67
2023/01/26 11:29:28;;;;;;;4.47;4.07;;;;;;;3.10;68.33;94913.50;5023275;28;20758;-66
2023/01/26 11:32:06;;;;;;;3.83;2.97;;;;;;;2.98;68.43;94901.84;5025195;28;20241;-67
2023/01/26 11:34:41;;;;;;;1.73;1.63;;;;;;;3.06;68.23;94906.84;5026923;28;20199;-66
2023/01/26 11:37:43;;;;;;;2.90;2.70;;;;;;;3.11;68.41;94902.63;5025303;28;20448;-67
2023/01/26 11:40:23;;;;;;;3.43;3.13;;;;;;;3.11;68.27;94915.16;5026839;28;20286;-66
2023/01/26 11:43:05;;;;;;;2.70;2.50;;;;;;;3.09;68.71;94889.25;5025263;28;20199;-68
2023/01/26 11:45:42;;;;;;;3.43;3.13;;;;;;;3.28;68.65;94897.44;5025743;28;20202;-67
2023/01/26 11:48:22;;;;;;;4.70;2.70;;;;;;;3.38;68.38;94887.34;5024813;28;20198;-66
2023/01/26 11:50:56;;;;;;;3.67;2.93;;;;;;;3.20;68.61;94884.97;5025851;28;22231;-67
2023/01/26 11:53:40;;;;;;;8.27;2.73;;;;;;;3.20;68.64;94886.66;5024653;28;20217;-66
2023/01/26 11:56:34;;;;;;;2.40;2.30;;;;;;;3.13;68.64;94900.94;5026932;28;20207;-67
2023/01/26 11:59:06;;;;;;;1.77;1.67;;;;;;;2.82;69.32;94909.50;5027095;28;20218;-67
2023/01/26 12:01:40;;;;;;;4.37;2.40;;;;;;;2.65;70.69;94895.41;5026813;28;20569;-67
2023/01/26 12:04:17;;;;;;;3.73;2.63;;;;;;;2.61;70.93;94881.22;5026393;28;20211;-67
2023/01/26 12:06:47;;;;;;;5.60;4.10;;;;;;;2.82;70.61;94870.19;5028375;28;20265;-67
2023/01/26 12:09:18;;;;;;;3.23;3.00;;;;;;;2.79;70.79;94874.41;5027206;28;20207;-66
2023/01/26 12:11:53;;;;;;;3.97;3.23;;;;;;;2.91;70.57;94867.63;5027817;28;20214;-66
2023/01/26 12:14:28;;;;;;;3.30;3.10;;;;;;;2.82;70.98;94876.88;5029639;28;20234;-68
2023/01/26 12:17:13;;;;;;;3.27;3.07;;;;;;;2.70;71.43;94853.56;5030953;28;20207;-67
2023/01/26 12:19:51;;;;;;;3.67;3.40;;;;;;;2.59;71.62;94852.78;5029520;28;20226;-66
2023/01/26 12:22:24;;;;;;;5.93;3.17;;;;;;;2.64;71.31;94841.06;5030032;28;20210;-66
2023/01/26 12:24:55;;;;;;;4.27;3.80;;;;;;;2.73;71.56;94832.59;5029159;28;20211;-66
2023/01/26 12:27:28;;;;;;;3.23;2.93;;;;;;;2.65;71.61;94821.81;5031568;28;20242;-65
2023/01/26 12:30:03;;;;;;;2.30;2.20;;;;;;;2.73;72.36;94830.94;5029734;28;20583;-66
2023/01/26 12:32:29;;;;;;;4.13;3.87;;;;;;;2.70;71.78;94820.09;5028141;28;20238;-66
2023/01/26 12:34:59;;;;;;;5.40;4.83;;;;;;;2.82;71.83;94821.69;5030541;28;20211;-67
2023/01/26 12:37:46;;;;;;;3.57;3.37;;;;;;;2.76;72.13;94821.72;5030116;28;20739;-65